KLGAKDXR

Guest
Details From KLGA - La Guardia
To KDXR - Kdxr Danbury Ct
Flight Number -
Tags Generated
Created
Modified
Stats Distance 40 nm / 74 km
Max Altitude 0 ft / 0 m
Waypoints 2
Social Downloads 1
Likes 0
Share VATSIM

Download

Looking for another format? Having issues loading an existing format? Contact us
Advertisement - Login to hide

Notes

Generated

Route

KLGA KDXR

ID Type Via Altitude Latitude Longitude Leg Dist Tot Dist Heading (true) Name
O KLGA APT - 0 ft / 0 m 40.78229˚ -73.87852˚ - 0 nm - -
O KDXR APT - 0 ft / 0 m 41.37641˚ -73.48334˚ 39 nm 39 nm 26° / 27° -

Altitude Profile

Advertisement - Login to hide

KLGA

Details ICAO KLGA (LGA)
Name La Guardia
Region United States
Timezone America/New_York (UTC-5.0)
Stats Elevation 22 ft / 7 m (AMSL)
Location 40.777236° -73.872610°
Runways 2
Magnetic Variation 12.980° W

METAR

KLGA 181551Z VRB04KT 10SM OVC011 04/00 A3009 RMK AO2 SLP188 T00390000 $

Decode

TAF

TAF AMD KLGA 181538Z 1816/1918 04006KT P6SM SCT007 OVC012 TEMPO 1816/1819 BKN007 OVC012 FM181900 34006KT P6SM SCT007 BKN015 FM182200 26007KT P6SM BKN070 FM190600 27008KT P6SM SCT050 FM191500 25014G22KT P6SM SCT025 SCT050

Decode

Departure Runways

ID Width Length Bearing (true) Bearing (mag) Surface Threshold Offset Overrun Length
04 151 ft / 46 m 7,002 ft / 2,134 m 32.04° 45.02° Asphalt 0 ft / 0 m 312 ft / 95 m
13 151 ft / 46 m 6,990 ft / 2,130 m 122.24° 135.22° Asphalt 0 ft / 0 m 98 ft / 30 m
22 151 ft / 46 m 7,002 ft / 2,134 m 212.05° 225.03° Asphalt 0 ft / 0 m 92 ft / 28 m
31 151 ft / 46 m 6,990 ft / 2,130 m 302.26° 315.24° Asphalt 0 ft / 0 m 361 ft / 110 m

KDXR

Details ICAO KDXR (DXR)
Name Danbury
Region United States
Timezone America/New_York (UTC-5.0)
Stats Elevation 458 ft / 140 m (AMSL)
Location 41.371685° -73.481981°
Runways 2
Magnetic Variation 13.315° W

METAR

KDXR 181553Z 00000KT 10SM OVC012 01/M05 A3008 RMK AO2 SLP190 T00061050

Decode

TAF

Not found

Destination Runways

ID Width Length Bearing (true) Bearing (mag) Surface Threshold Offset Overrun Length
08 151 ft / 46 m 4,414 ft / 1,345 m 69.68° 83.00° Asphalt 367 ft / 112 m 0 ft / 0 m
17 98 ft / 30 m 3,138 ft / 956 m 153.16° 166.48° Asphalt 223 ft / 68 m 0 ft / 0 m
26 151 ft / 46 m 4,414 ft / 1,345 m 249.69° 263.01° Asphalt 735 ft / 224 m 0 ft / 0 m
35 98 ft / 30 m 3,138 ft / 956 m 333.17° 346.49° Asphalt 230 ft / 70 m 0 ft / 0 m

Approach Navaids

Runway Type Ident Frequency Range Bearing (true) Bearing (mag) Slope Elevation
08 Localiser IDXR 111.55 MHz 18 nm / 33 km 73.10° 86.42° - 458 ft / 140 m (AMSL)
08 DME IDXR 111.55 MHz 18 nm / 33 km - - - 453 ft / 138 m (AMSL)

Popular Alternatives